createdAt,value
2023-02-28T00:02:21.680Z,99547.90
2023-02-28T00:07:29.108Z,99548.45
2023-02-28T00:12:36.349Z,99548.65
2023-02-28T00:17:43.593Z,99548.56
2023-02-28T00:22:52.101Z,99544.23
2023-02-28T00:27:59.459Z,99547.58
2023-02-28T00:33:06.872Z,99551.41
2023-02-28T00:38:14.428Z,99549.05
2023-02-28T00:43:21.475Z,99550.77
2023-02-28T00:48:28.899Z,99550.69
2023-02-28T00:53:36.326Z,99551.33
2023-02-28T00:58:43.678Z,99559.83
2023-02-28T01:03:51.166Z,99556.44
2023-02-28T01:08:58.576Z,99557.09
2023-02-28T01:14:06.528Z,99556.61
2023-02-28T01:19:14.017Z,99557.55
2023-02-28T01:24:21.869Z,99560.67
2023-02-28T01:29:29.284Z,99552.61
2023-02-28T01:34:37.060Z,99553.54
2023-02-28T01:39:44.421Z,99556.23
2023-02-28T01:45:07.503Z,99556.64
2023-02-28T01:50:17.881Z,99552.64
2023-02-28T01:55:30.062Z,99550.55
2023-02-28T02:00:37.625Z,99546.80
2023-02-28T02:05:49.385Z,99545.39
2023-02-28T02:10:58.571Z,99537.33
2023-02-28T02:16:14.221Z,99537.46
2023-02-28T02:21:46.423Z,99537.89
2023-02-28T02:27:13.915Z,99538.36
2023-02-28T02:32:34.201Z,99533.36
2023-02-28T02:37:44.161Z,99533.20
2023-02-28T02:42:54.320Z,99531.09
2023-02-28T02:48:02.680Z,99531.39
2023-02-28T02:53:11.184Z,99530.66
2023-02-28T02:58:20.161Z,99527.73
2023-02-28T03:03:31.996Z,99530.92
2023-02-28T03:08:40.306Z,99530.45
2023-02-28T03:13:53.282Z,99530.73
2023-02-28T03:19:06.262Z,99530.27
2023-02-28T03:24:14.985Z,99529.99
2023-02-28T03:29:25.477Z,99536.28
2023-02-28T03:34:35.785Z,99537.40
2023-02-28T03:39:44.466Z,99539.89
2023-02-28T03:44:54.509Z,99544.41
2023-02-28T03:50:04.744Z,99549.36
2023-02-28T03:55:13.986Z,99550.48
2023-02-28T04:00:22.974Z,99556.40
2023-02-28T04:05:30.605Z,99559.59
2023-02-28T04:10:38.105Z,99556.83
2023-02-28T04:15:45.592Z,99562.15
2023-02-28T04:20:52.823Z,99566.91
2023-02-28T04:26:00.259Z,99566.27
2023-02-28T04:31:08.209Z,99569.70
2023-02-28T04:36:15.993Z,99570.69
2023-02-28T04:41:24.170Z,99578.11
2023-02-28T04:46:31.902Z,99576.73
2023-02-28T04:51:39.612Z,99583.17
2023-02-28T04:56:47.461Z,99584.57
2023-02-28T05:01:55.066Z,99586.45
2023-02-28T05:07:02.622Z,99589.95
2023-02-28T05:12:11.560Z,99586.80
2023-02-28T05:17:18.850Z,99590.29
2023-02-28T05:22:26.233Z,99592.98
2023-02-28T05:27:33.490Z,99598.30
2023-02-28T05:32:44.295Z,99602.59
2023-02-28T05:37:51.526Z,99611.80
2023-02-28T05:42:58.910Z,99614.34
2023-02-28T05:48:06.276Z,99619.41
2023-02-28T05:53:13.308Z,99617.02
2023-02-28T05:58:20.460Z,99619.82
2023-02-28T06:03:27.630Z,99631.00
2023-02-28T06:08:35.022Z,99637.88
2023-02-28T06:13:42.332Z,99638.83
2023-02-28T06:18:49.557Z,99646.41
2023-02-28T06:23:57.146Z,99650.02
2023-02-28T06:29:04.630Z,99652.63
2023-02-28T06:34:12.929Z,99655.21
2023-02-28T06:39:20.214Z,99661.02
2023-02-28T06:44:27.517Z,99665.44
2023-02-28T06:49:35.566Z,99663.46
2023-02-28T06:54:43.005Z,99658.85
2023-02-28T06:59:50.198Z,99665.52
2023-02-28T07:04:57.646Z,99672.81
2023-02-28T07:10:05.142Z,99674.88
2023-02-28T07:15:13.571Z,99671.86
2023-02-28T07:20:21.161Z,99675.41
2023-02-28T07:25:29.264Z,99674.14
2023-02-28T07:30:36.830Z,99678.23
2023-02-28T07:35:44.252Z,99678.52
2023-02-28T07:40:51.964Z,99681.35
2023-02-28T07:46:03.541Z,99679.93
2023-02-28T07:51:10.587Z,99682.48
2023-02-28T07:56:17.866Z,99680.98
2023-02-28T08:01:25.285Z,99678.20
2023-02-28T08:06:32.702Z,99676.70
2023-02-28T08:11:39.952Z,99677.95
2023-02-28T08:16:47.430Z,99682.93
2023-02-28T08:21:55.293Z,99680.98
2023-02-28T08:27:02.375Z,99679.85
2023-02-28T08:32:20.545Z,99678.64
2023-02-28T08:37:36.004Z,99676.92
2023-02-28T08:42:43.498Z,99679.88
2023-02-28T08:47:50.945Z,99678.56
2023-02-28T08:52:58.295Z,99681.79
2023-02-28T08:58:05.352Z,99683.83
2023-02-28T09:03:12.828Z,99682.42
2023-02-28T09:08:20.401Z,99676.02
2023-02-28T09:13:27.923Z,99680.07
2023-02-28T09:18:36.340Z,99678.39
2023-02-28T09:23:43.523Z,99685.13
2023-02-28T09:28:50.759Z,99687.44
2023-02-28T09:33:59.215Z,99686.02
2023-02-28T09:39:06.443Z,99688.70
2023-02-28T09:44:18.825Z,99683.74
2023-02-28T09:49:28.892Z,99689.30
2023-02-28T09:54:36.482Z,99691.38
2023-02-28T09:59:58.176Z,99698.45
2023-02-28T10:05:09.275Z,99703.83
2023-02-28T10:10:20.887Z,99702.50
2023-02-28T10:15:30.704Z,99699.76
2023-02-28T10:20:41.126Z,99698.63
2023-02-28T10:25:51.324Z,99693.02
2023-02-28T10:30:59.804Z,99688.64
2023-02-28T10:36:09.034Z,99682.14
2023-02-28T10:41:19.524Z,99676.88
2023-02-28T10:46:28.482Z,99678.50
2023-02-28T10:51:41.838Z,99677.89
2023-02-28T10:57:08.305Z,99673.23
2023-02-28T11:07:53.790Z,99660.52
2023-02-28T11:13:01.342Z,99653.60
2023-02-28T11:18:22.497Z,99654.59
2023-02-28T11:23:31.486Z,99647.72
2023-02-28T11:28:39.602Z,99637.56
2023-02-28T11:33:51.520Z,99635.75
2023-02-28T11:38:59.596Z,99630.52
2023-02-28T11:44:26.676Z,99622.23
2023-02-28T11:49:37.416Z,99619.41
2023-02-28T11:54:54.446Z,99613.14
2023-02-28T12:00:04.721Z,99609.73
2023-02-28T12:05:21.509Z,99613.73
2023-02-28T12:10:31.638Z,99605.59
2023-02-28T12:15:47.379Z,99607.63
2023-02-28T12:20:58.400Z,99601.27
2023-02-28T12:26:10.930Z,99595.66
2023-02-28T12:31:21.093Z,99591.61
2023-02-28T12:36:29.995Z,99593.77
2023-02-28T12:41:41.966Z,99587.48
2023-02-28T12:46:51.221Z,99579.61
2023-02-28T12:51:58.546Z,99575.91
2023-02-28T12:57:10.957Z,99573.80
2023-02-28T13:02:36.506Z,99569.44
2023-02-28T13:08:00.006Z,99566.80
2023-02-28T13:13:07.411Z,99564.15
2023-02-28T13:18:30.918Z,99565.39
2023-02-28T13:23:43.631Z,99566.39
2023-02-28T13:29:10.517Z,99562.86
2023-02-28T13:34:18.563Z,99559.77
2023-02-28T13:39:43.395Z,99559.02
2023-02-28T13:45:04.381Z,99556.02
2023-02-28T13:50:31.487Z,99556.91
2023-02-28T13:55:40.932Z,99553.73
2023-02-28T14:00:57.519Z,99549.14
2023-02-28T14:06:24.906Z,99543.21
2023-02-28T14:11:33.557Z,99541.26
2023-02-28T14:16:43.802Z,99534.71
2023-02-28T14:22:04.667Z,99529.11
2023-02-28T14:27:18.487Z,99530.73
2023-02-28T14:32:31.505Z,99526.63
2023-02-28T14:37:40.737Z,99520.46
2023-02-28T14:42:57.579Z,99521.54
2023-02-28T14:48:06.055Z,99513.88
2023-02-28T14:53:18.464Z,99513.79
2023-02-28T14:58:27.234Z,99510.05
2023-02-28T15:03:35.967Z,99512.76
2023-02-28T15:08:43.656Z,99507.96
2023-02-28T15:13:51.910Z,99513.92
2023-02-28T15:19:00.947Z,99514.05
2023-02-28T15:24:12.272Z,99513.88
2023-02-28T15:29:21.939Z,99512.38
2023-02-28T15:34:43.013Z,99512.59
2023-02-28T15:39:51.445Z,99509.65
2023-02-28T15:44:58.849Z,99515.64
2023-02-28T15:50:06.967Z,99510.33
2023-02-28T15:55:18.752Z,99507.52
2023-02-28T16:00:27.871Z,99509.20
2023-02-28T16:05:36.685Z,99511.46
2023-02-28T16:10:44.106Z,99511.14
2023-02-28T16:15:52.857Z,99512.05
2023-02-28T16:21:00.388Z,99514.64
2023-02-28T16:26:08.610Z,99519.06
2023-02-28T16:31:17.810Z,99520.88
2023-02-28T16:36:26.588Z,99525.12
2023-02-28T16:41:34.010Z,99525.90
2023-02-28T16:46:41.387Z,99528.90
2023-02-28T16:51:48.854Z,99533.61
2023-02-28T16:56:56.269Z,99536.44
2023-02-28T17:02:03.718Z,99538.51
2023-02-28T17:07:14.421Z,99540.35
2023-02-28T17:12:21.940Z,99547.88
2023-02-28T17:17:29.581Z,99550.08
2023-02-28T17:22:36.959Z,99552.68
2023-02-28T17:27:44.466Z,99554.66
2023-02-28T17:32:52.304Z,99556.36
2023-02-28T17:37:59.731Z,99555.70
2023-02-28T17:43:07.208Z,99556.64
2023-02-28T17:48:14.445Z,99558.73
2023-02-28T17:53:24.348Z,99558.63
2023-02-28T17:58:32.397Z,99560.81
2023-02-28T18:03:40.018Z,99551.29
2023-02-28T18:08:47.596Z,99554.21
2023-02-28T18:13:55.958Z,99561.16
2023-02-28T18:19:03.927Z,99563.09
2023-02-28T18:24:12.281Z,99561.40
2023-02-28T18:29:20.966Z,99558.73
2023-02-28T18:34:28.724Z,99552.96
2023-02-28T18:39:36.273Z,99553.88
2023-02-28T18:44:43.709Z,99554.88
2023-02-28T18:49:51.171Z,99552.46
2023-02-28T18:54:58.401Z,99555.55
2023-02-28T19:00:06.127Z,99557.39
2023-02-28T19:05:13.499Z,99550.16
2023-02-28T19:10:20.949Z,99554.23
2023-02-28T19:15:28.492Z,99548.69
2023-02-28T19:20:35.950Z,99545.91
2023-02-28T19:25:44.525Z,99547.02
2023-02-28T19:30:53.379Z,99548.86
2023-02-28T19:36:03.379Z,99548.27
2023-02-28T19:41:12.401Z,99547.69
2023-02-28T19:46:20.609Z,99552.29
2023-02-28T19:51:29.341Z,99549.25
2023-02-28T19:56:37.071Z,99557.36
2023-02-28T20:01:44.591Z,99552.14
2023-02-28T20:06:52.087Z,99552.77
2023-02-28T20:12:00.352Z,99555.83
2023-02-28T20:17:07.839Z,99561.23
2023-02-28T20:22:15.422Z,99562.20
2023-02-28T20:27:23.094Z,99556.92
2023-02-28T20:32:30.535Z,99557.73
2023-02-28T20:37:37.791Z,99551.83
2023-02-28T20:42:45.244Z,99547.52
2023-02-28T20:47:52.490Z,99545.00
2023-02-28T20:52:59.857Z,99548.02
2023-02-28T20:58:07.037Z,99545.29
2023-02-28T21:03:14.396Z,99539.67
2023-02-28T21:08:21.734Z,99538.13
2023-02-28T21:13:28.915Z,99536.98
2023-02-28T21:18:36.953Z,99530.80
2023-02-28T21:23:45.639Z,99523.92
2023-02-28T21:28:53.351Z,99524.39
2023-02-28T21:34:01.410Z,99533.30
2023-02-28T21:39:09.646Z,99533.71
2023-02-28T21:44:18.981Z,99536.68
2023-02-28T21:49:26.695Z,99533.27
2023-02-28T21:54:34.356Z,99535.00
2023-02-28T21:59:41.688Z,99536.88
2023-02-28T22:04:49.091Z,99537.16
2023-02-28T22:09:56.635Z,99545.27
2023-02-28T22:15:03.976Z,99547.23
2023-02-28T22:20:13.089Z,99545.06
2023-02-28T22:25:20.620Z,99543.90
2023-02-28T22:30:27.802Z,99548.84
2023-02-28T22:35:35.202Z,99557.23
2023-02-28T22:40:42.191Z,99558.24
2023-02-28T22:45:49.492Z,99567.83
2023-02-28T22:51:05.442Z,99572.34
2023-02-28T22:56:13.145Z,99575.44
2023-02-28T23:01:21.016Z,99573.88
2023-02-28T23:06:29.427Z,99570.92
2023-02-28T23:11:38.325Z,99570.48
2023-02-28T23:16:47.229Z,99583.60
2023-02-28T23:21:55.278Z,99585.45
2023-02-28T23:27:03.182Z,99582.00
2023-02-28T23:32:11.012Z,99572.31
2023-02-28T23:37:18.282Z,99569.75
2023-02-28T23:42:25.425Z,99575.59
2023-02-28T23:47:33.031Z,99570.30
2023-02-28T23:52:40.880Z,99568.66
2023-02-28T23:57:48.672Z,99567.66
